sensor_id;sensor_type;location;lat;lon;timestamp;P1;durP1;ratioP1;P2;durP2;ratioP2
30287;SDS011;17103;48.316;11.558;2024-02-26T00:01:43;10.23;;;7.25;;
30287;SDS011;17103;48.316;11.558;2024-02-26T00:04:10;7.80;;;6.03;;
30287;SDS011;17103;48.316;11.558;2024-02-26T00:06:38;7.95;;;6.30;;
30287;SDS011;17103;48.316;11.558;2024-02-26T00:09:08;10.32;;;7.47;;
30287;SDS011;17103;48.316;11.558;2024-02-26T00:11:38;9.18;;;6.45;;
30287;SDS011;17103;48.316;11.558;2024-02-26T00:14:06;8.85;;;6.60;;
30287;SDS011;17103;48.316;11.558;2024-02-26T00:16:34;7.97;;;6.25;;
30287;SDS011;17103;48.316;11.558;2024-02-26T00:21:33;9.05;;;6.93;;
30287;SDS011;17103;48.316;11.558;2024-02-26T00:24:00;9.57;;;6.88;;
30287;SDS011;17103;48.316;11.558;2024-02-26T00:26:26;9.95;;;6.70;;
30287;SDS011;17103;48.316;11.558;2024-02-26T00:28:52;11.55;;;6.85;;
30287;SDS011;17103;48.316;11.558;2024-02-26T00:31:22;9.50;;;7.15;;
30287;SDS011;17103;48.316;11.558;2024-02-26T00:33:52;8.32;;;6.70;;
30287;SDS011;17103;48.316;11.558;2024-02-26T00:36:19;10.65;;;6.68;;
30287;SDS011;17103;48.316;11.558;2024-02-26T00:38:45;10.00;;;6.72;;
30287;SDS011;17103;48.316;11.558;2024-02-26T00:41:15;11.02;;;7.15;;
30287;SDS011;17103;48.316;11.558;2024-02-26T00:43:41;10.10;;;7.32;;
30287;SDS011;17103;48.316;11.558;2024-02-26T00:46:07;8.98;;;6.75;;
30287;SDS011;17103;48.316;11.558;2024-02-26T00:48:33;10.65;;;7.40;;
30287;SDS011;17103;48.316;11.558;2024-02-26T00:50:59;10.88;;;7.15;;
30287;SDS011;17103;48.316;11.558;2024-02-26T00:53:24;8.93;;;7.38;;
30287;SDS011;17103;48.316;11.558;2024-02-26T00:55:50;10.38;;;7.50;;
30287;SDS011;17103;48.316;11.558;2024-02-26T00:58:16;7.85;;;6.00;;
30287;SDS011;17103;48.316;11.558;2024-02-26T01:00:41;10.10;;;7.10;;
30287;SDS011;17103;48.316;11.558;2024-02-26T01:03:08;9.48;;;6.47;;
30287;SDS011;17103;48.316;11.558;2024-02-26T01:05:35;9.73;;;7.10;;
30287;SDS011;17103;48.316;11.558;2024-02-26T01:08:02;9.77;;;6.38;;
30287;SDS011;17103;48.316;11.558;2024-02-26T01:10:28;9.13;;;6.72;;
30287;SDS011;17103;48.316;11.558;2024-02-26T01:12:54;9.18;;;6.85;;
30287;SDS011;17103;48.316;11.558;2024-02-26T01:15:20;8.68;;;6.60;;
30287;SDS011;17103;48.316;11.558;2024-02-26T01:17:49;10.32;;;7.10;;
30287;SDS011;17103;48.316;11.558;2024-02-26T01:20:15;10.18;;;6.15;;
30287;SDS011;17103;48.316;11.558;2024-02-26T01:22:42;7.70;;;6.35;;
30287;SDS011;17103;48.316;11.558;2024-02-26T01:25:09;9.38;;;7.03;;
30287;SDS011;17103;48.316;11.558;2024-02-26T01:27:36;8.05;;;6.32;;
30287;SDS011;17103;48.316;11.558;2024-02-26T01:30:02;9.27;;;6.25;;
30287;SDS011;17103;48.316;11.558;2024-02-26T01:32:29;10.05;;;7.20;;
30287;SDS011;17103;48.316;11.558;2024-02-26T01:34:55;9.35;;;6.75;;
30287;SDS011;17103;48.316;11.558;2024-02-26T01:37:21;11.00;;;6.60;;
30287;SDS011;17103;48.316;11.558;2024-02-26T01:39:47;9.30;;;6.50;;
30287;SDS011;17103;48.316;11.558;2024-02-26T01:42:12;8.20;;;6.45;;
30287;SDS011;17103;48.316;11.558;2024-02-26T01:44:38;8.45;;;6.43;;
30287;SDS011;17103;48.316;11.558;2024-02-26T01:47:04;9.23;;;6.85;;
30287;SDS011;17103;48.316;11.558;2024-02-26T01:49:33;10.52;;;7.32;;
30287;SDS011;17103;48.316;11.558;2024-02-26T01:52:00;12.18;;;6.25;;
30287;SDS011;17103;48.316;11.558;2024-02-26T01:54:27;6.97;;;5.10;;
30287;SDS011;17103;48.316;11.558;2024-02-26T01:56:54;10.40;;;7.00;;
30287;SDS011;17103;48.316;11.558;2024-02-26T01:59:20;9.27;;;6.22;;
30287;SDS011;17103;48.316;11.558;2024-02-26T02:01:47;9.68;;;6.32;;
30287;SDS011;17103;48.316;11.558;2024-02-26T02:04:18;9.38;;;6.18;;
30287;SDS011;17103;48.316;11.558;2024-02-26T02:06:45;10.07;;;6.93;;
30287;SDS011;17103;48.316;11.558;2024-02-26T02:09:11;9.65;;;6.95;;
30287;SDS011;17103;48.316;11.558;2024-02-26T02:11:37;10.55;;;7.30;;
30287;SDS011;17103;48.316;11.558;2024-02-26T02:14:02;10.25;;;7.28;;
30287;SDS011;17103;48.316;11.558;2024-02-26T02:16:28;9.80;;;6.97;;
30287;SDS011;17103;48.316;11.558;2024-02-26T02:18:54;8.90;;;6.40;;
30287;SDS011;17103;48.316;11.558;2024-02-26T02:21:20;9.10;;;6.03;;
30287;SDS011;17103;48.316;11.558;2024-02-26T02:23:46;10.50;;;6.45;;
30287;SDS011;17103;48.316;11.558;2024-02-26T02:26:14;10.00;;;7.22;;
30287;SDS011;17103;48.316;11.558;2024-02-26T02:28:40;9.23;;;6.85;;
30287;SDS011;17103;48.316;11.558;2024-02-26T02:31:07;8.35;;;6.40;;
30287;SDS011;17103;48.316;11.558;2024-02-26T02:33:36;9.20;;;6.43;;
30287;SDS011;17103;48.316;11.558;2024-02-26T02:36:02;9.00;;;6.45;;
30287;SDS011;17103;48.316;11.558;2024-02-26T02:38:28;8.90;;;6.43;;
30287;SDS011;17103;48.316;11.558;2024-02-26T02:40:55;8.20;;;5.45;;
30287;SDS011;17103;48.316;11.558;2024-02-26T02:43:21;8.95;;;6.45;;
30287;SDS011;17103;48.316;11.558;2024-02-26T02:45:47;8.52;;;6.30;;
30287;SDS011;17103;48.316;11.558;2024-02-26T02:48:13;10.30;;;6.78;;
30287;SDS011;17103;48.316;11.558;2024-02-26T02:50:39;10.02;;;6.65;;
30287;SDS011;17103;48.316;11.558;2024-02-26T02:53:05;7.55;;;5.80;;
30287;SDS011;17103;48.316;11.558;2024-02-26T02:55:30;9.15;;;6.40;;
30287;SDS011;17103;48.316;11.558;2024-02-26T02:57:56;7.78;;;5.95;;
30287;SDS011;17103;48.316;11.558;2024-02-26T03:00:21;8.82;;;6.20;;
30287;SDS011;17103;48.316;11.558;2024-02-26T03:02:50;8.35;;;6.60;;
30287;SDS011;17103;48.316;11.558;2024-02-26T03:05:16;10.38;;;7.10;;
30287;SDS011;17103;48.316;11.558;2024-02-26T03:07:41;9.75;;;6.05;;
30287;SDS011;17103;48.316;11.558;2024-02-26T03:10:07;9.00;;;6.43;;
30287;SDS011;17103;48.316;11.558;2024-02-26T03:12:34;10.10;;;6.30;;
30287;SDS011;17103;48.316;11.558;2024-02-26T03:15:00;9.38;;;6.90;;
30287;SDS011;17103;48.316;11.558;2024-02-26T03:17:29;9.85;;;6.60;;
30287;SDS011;17103;48.316;11.558;2024-02-26T03:19:55;8.82;;;6.20;;
30287;SDS011;17103;48.316;11.558;2024-02-26T03:22:23;9.45;;;6.28;;
30287;SDS011;17103;48.316;11.558;2024-02-26T03:24:49;9.13;;;6.25;;
30287;SDS011;17103;48.316;11.558;2024-02-26T03:27:15;9.35;;;6.53;;
30287;SDS011;17103;48.316;11.558;2024-02-26T03:29:41;9.63;;;6.65;;
30287;SDS011;17103;48.316;11.558;2024-02-26T03:32:07;8.25;;;5.95;;
30287;SDS011;17103;48.316;11.558;2024-02-26T03:34:33;9.45;;;6.10;;
30287;SDS011;17103;48.316;11.558;2024-02-26T03:37:04;9.05;;;5.88;;
30287;SDS011;17103;48.316;11.558;2024-02-26T03:39:30;8.82;;;5.82;;
30287;SDS011;17103;48.316;11.558;2024-02-26T03:41:58;8.48;;;6.00;;
30287;SDS011;17103;48.316;11.558;2024-02-26T03:44:24;9.48;;;6.47;;
30287;SDS011;17103;48.316;11.558;2024-02-26T03:46:50;8.65;;;5.95;;
30287;SDS011;17103;48.316;11.558;2024-02-26T03:49:16;8.50;;;5.68;;
30287;SDS011;17103;48.316;11.558;2024-02-26T03:51:43;10.13;;;6.50;;
30287;SDS011;17103;48.316;11.558;2024-02-26T03:54:08;9.68;;;6.68;;
30287;SDS011;17103;48.316;11.558;2024-02-26T03:56:34;8.25;;;6.00;;
30287;SDS011;17103;48.316;11.558;2024-02-26T03:59:00;8.00;;;5.57;;
30287;SDS011;17103;48.316;11.558;2024-02-26T04:01:27;7.32;;;5.70;;
30287;SDS011;17103;48.316;11.558;2024-02-26T04:03:53;8.35;;;5.55;;
30287;SDS011;17103;48.316;11.558;2024-02-26T04:06:19;9.82;;;6.57;;
30287;SDS011;17103;48.316;11.558;2024-02-26T04:08:49;8.50;;;5.97;;
30287;SDS011;17103;48.316;11.558;2024-02-26T04:11:14;9.38;;;6.20;;
30287;SDS011;17103;48.316;11.558;2024-02-26T04:13:46;8.73;;;6.18;;
30287;SDS011;17103;48.316;11.558;2024-02-26T04:16:14;9.02;;;6.13;;
30287;SDS011;17103;48.316;11.558;2024-02-26T04:18:41;8.57;;;5.93;;
30287;SDS011;17103;48.316;11.558;2024-02-26T04:21:07;7.80;;;6.05;;
30287;SDS011;17103;48.316;11.558;2024-02-26T04:23:34;8.90;;;6.25;;
30287;SDS011;17103;48.316;11.558;2024-02-26T04:25:59;7.93;;;6.10;;
30287;SDS011;17103;48.316;11.558;2024-02-26T04:28:25;8.38;;;5.72;;
30287;SDS011;17103;48.316;11.558;2024-02-26T04:30:54;7.65;;;5.80;;
30287;SDS011;17103;48.316;11.558;2024-02-26T04:33:19;7.75;;;6.97;;
30287;SDS011;17103;48.316;11.558;2024-02-26T04:35:45;6.88;;;4.82;;
30287;SDS011;17103;48.316;11.558;2024-02-26T04:38:11;7.70;;;5.47;;
30287;SDS011;17103;48.316;11.558;2024-02-26T04:40:36;9.40;;;5.88;;
30287;SDS011;17103;48.316;11.558;2024-02-26T04:43:03;8.80;;;6.00;;
30287;SDS011;17103;48.316;11.558;2024-02-26T04:45:29;7.65;;;5.45;;
30287;SDS011;17103;48.316;11.558;2024-02-26T04:47:54;7.35;;;5.43;;
30287;SDS011;17103;48.316;11.558;2024-02-26T04:50:20;8.30;;;5.95;;
30287;SDS011;17103;48.316;11.558;2024-02-26T04:52:46;7.30;;;5.20;;
30287;SDS011;17103;48.316;11.558;2024-02-26T04:55:11;7.07;;;5.55;;
30287;SDS011;17103;48.316;11.558;2024-02-26T04:57:37;8.25;;;5.45;;
30287;SDS011;17103;48.316;11.558;2024-02-26T05:00:03;8.45;;;5.45;;
30287;SDS011;17103;48.316;11.558;2024-02-26T05:02:30;7.47;;;5.30;;
30287;SDS011;17103;48.316;11.558;2024-02-26T05:04:57;5.80;;;4.43;;
30287;SDS011;17103;48.316;11.558;2024-02-26T05:07:22;6.15;;;4.60;;
30287;SDS011;17103;48.316;11.558;2024-02-26T05:09:48;6.50;;;5.13;;
30287;SDS011;17103;48.316;11.558;2024-02-26T05:12:15;7.15;;;5.18;;
30287;SDS011;17103;48.316;11.558;2024-02-26T05:14:40;7.00;;;5.20;;
30287;SDS011;17103;48.316;11.558;2024-02-26T05:17:06;6.63;;;4.82;;
30287;SDS011;17103;48.316;11.558;2024-02-26T05:19:33;6.65;;;4.82;;
30287;SDS011;17103;48.316;11.558;2024-02-26T05:21:59;7.28;;;5.07;;
30287;SDS011;17103;48.316;11.558;2024-02-26T05:24:25;7.05;;;4.68;;
30287;SDS011;17103;48.316;11.558;2024-02-26T05:26:51;6.38;;;4.47;;
30287;SDS011;17103;48.316;11.558;2024-02-26T05:29:16;7.38;;;5.80;;
30287;SDS011;17103;48.316;11.558;2024-02-26T05:31:42;8.65;;;5.35;;
30287;SDS011;17103;48.316;11.558;2024-02-26T05:34:08;11.68;;;8.80;;
30287;SDS011;17103;48.316;11.558;2024-02-26T05:36:33;9.00;;;6.80;;
30287;SDS011;17103;48.316;11.558;2024-02-26T05:39:01;6.95;;;5.00;;
30287;SDS011;17103;48.316;11.558;2024-02-26T05:41:27;8.43;;;5.20;;
30287;SDS011;17103;48.316;11.558;2024-02-26T05:43:52;8.38;;;5.43;;
30287;SDS011;17103;48.316;11.558;2024-02-26T05:46:19;7.05;;;4.68;;
30287;SDS011;17103;48.316;11.558;2024-02-26T05:48:50;7.47;;;5.30;;
30287;SDS011;17103;48.316;11.558;2024-02-26T05:51:18;7.50;;;5.75;;
30287;SDS011;17103;48.316;11.558;2024-02-26T05:53:44;5.22;;;4.35;;
30287;SDS011;17103;48.316;11.558;2024-02-26T05:56:11;8.02;;;5.35;;
30287;SDS011;17103;48.316;11.558;2024-02-26T05:58:38;5.10;;;4.05;;
30287;SDS011;17103;48.316;11.558;2024-02-26T06:01:04;6.18;;;4.40;;
30287;SDS011;17103;48.316;11.558;2024-02-26T06:03:29;9.00;;;4.35;;
30287;SDS011;17103;48.316;11.558;2024-02-26T06:05:55;7.88;;;4.45;;
30287;SDS011;17103;48.316;11.558;2024-02-26T06:08:21;6.20;;;4.72;;
30287;SDS011;17103;48.316;11.558;2024-02-26T06:10:47;5.85;;;4.43;;
30287;SDS011;17103;48.316;11.558;2024-02-26T06:13:13;5.85;;;4.30;;
30287;SDS011;17103;48.316;11.558;2024-02-26T06:15:38;6.47;;;4.72;;
30287;SDS011;17103;48.316;11.558;2024-02-26T06:18:04;6.63;;;4.57;;
30287;SDS011;17103;48.316;11.558;2024-02-26T06:20:29;8.10;;;5.15;;
30287;SDS011;17103;48.316;11.558;2024-02-26T06:22:55;8.25;;;5.28;;
30287;SDS011;17103;48.316;11.558;2024-02-26T06:25:21;7.57;;;5.70;;
30287;SDS011;17103;48.316;11.558;2024-02-26T06:27:47;8.73;;;6.38;;
30287;SDS011;17103;48.316;11.558;2024-02-26T06:30:12;8.50;;;5.80;;
30287;SDS011;17103;48.316;11.558;2024-02-26T06:32:38;9.70;;;6.28;;
30287;SDS011;17103;48.316;11.558;2024-02-26T06:35:04;6.75;;;5.32;;
30287;SDS011;17103;48.316;11.558;2024-02-26T06:37:34;8.50;;;6.30;;
30287;SDS011;17103;48.316;11.558;2024-02-26T06:40:00;10.05;;;6.15;;
30287;SDS011;17103;48.316;11.558;2024-02-26T06:42:29;8.18;;;5.68;;
30287;SDS011;17103;48.316;11.558;2024-02-26T06:44:55;9.93;;;6.45;;
30287;SDS011;17103;48.316;11.558;2024-02-26T06:47:21;11.45;;;6.95;;
30287;SDS011;17103;48.316;11.558;2024-02-26T06:49:50;8.63;;;6.07;;
30287;SDS011;17103;48.316;11.558;2024-02-26T06:52:15;9.15;;;6.20;;
30287;SDS011;17103;48.316;11.558;2024-02-26T06:54:41;7.15;;;5.70;;
30287;SDS011;17103;48.316;11.558;2024-02-26T06:57:08;10.13;;;6.20;;
30287;SDS011;17103;48.316;11.558;2024-02-26T06:59:33;8.07;;;5.68;;
30287;SDS011;17103;48.316;11.558;2024-02-26T07:02:01;9.50;;;6.47;;
30287;SDS011;17103;48.316;11.558;2024-02-26T07:04:27;10.30;;;6.03;;
30287;SDS011;17103;48.316;11.558;2024-02-26T07:06:53;7.80;;;5.45;;
30287;SDS011;17103;48.316;11.558;2024-02-26T07:09:19;10.65;;;6.05;;
30287;SDS011;17103;48.316;11.558;2024-02-26T07:11:44;7.85;;;5.13;;
30287;SDS011;17103;48.316;11.558;2024-02-26T07:14:11;9.10;;;5.30;;
30287;SDS011;17103;48.316;11.558;2024-02-26T07:16:37;8.32;;;6.38;;
30287;SDS011;17103;48.316;11.558;2024-02-26T07:19:03;12.20;;;5.40;;
30287;SDS011;17103;48.316;11.558;2024-02-26T07:21:30;9.60;;;6.68;;
30287;SDS011;17103;48.316;11.558;2024-02-26T07:23:56;8.32;;;6.07;;
30287;SDS011;17103;48.316;11.558;2024-02-26T07:26:21;8.98;;;5.63;;
30287;SDS011;17103;48.316;11.558;2024-02-26T07:29:01;10.25;;;6.13;;
30287;SDS011;17103;48.316;11.558;2024-02-26T07:31:29;8.02;;;6.00;;
30287;SDS011;17103;48.316;11.558;2024-02-26T07:33:54;9.07;;;5.70;;
30287;SDS011;17103;48.316;11.558;2024-02-26T07:36:20;8.02;;;5.22;;
30287;SDS011;17103;48.316;11.558;2024-02-26T07:38:46;9.48;;;6.28;;
30287;SDS011;17103;48.316;11.558;2024-02-26T07:41:12;9.40;;;5.80;;
30287;SDS011;17103;48.316;11.558;2024-02-26T07:43:39;9.35;;;5.63;;
30287;SDS011;17103;48.316;11.558;2024-02-26T07:46:06;6.97;;;5.07;;
30287;SDS011;17103;48.316;11.558;2024-02-26T07:48:32;8.63;;;5.32;;
30287;SDS011;17103;48.316;11.558;2024-02-26T07:50:58;9.48;;;5.70;;
30287;SDS011;17103;48.316;11.558;2024-02-26T07:53:25;11.80;;;6.07;;
30287;SDS011;17103;48.316;11.558;2024-02-26T07:55:51;9.82;;;6.75;;
30287;SDS011;17103;48.316;11.558;2024-02-26T07:58:16;9.30;;;6.00;;
30287;SDS011;17103;48.316;11.558;2024-02-26T08:00:43;9.60;;;6.55;;
30287;SDS011;17103;48.316;11.558;2024-02-26T08:03:12;8.43;;;6.43;;
30287;SDS011;17103;48.316;11.558;2024-02-26T08:05:38;7.72;;;5.72;;
30287;SDS011;17103;48.316;11.558;2024-02-26T08:08:05;8.13;;;5.25;;
30287;SDS011;17103;48.316;11.558;2024-02-26T08:10:31;8.60;;;5.88;;
30287;SDS011;17103;48.316;11.558;2024-02-26T08:12:57;8.02;;;5.35;;
30287;SDS011;17103;48.316;11.558;2024-02-26T08:15:30;7.90;;;5.65;;
30287;SDS011;17103;48.316;11.558;2024-02-26T08:17:56;10.07;;;6.35;;
30287;SDS011;17103;48.316;11.558;2024-02-26T08:20:22;7.55;;;5.38;;
30287;SDS011;17103;48.316;11.558;2024-02-26T08:22:47;10.45;;;6.03;;
30287;SDS011;17103;48.316;11.558;2024-02-26T08:25:13;6.75;;;5.10;;
30287;SDS011;17103;48.316;11.558;2024-02-26T08:27:41;8.40;;;5.78;;
30287;SDS011;17103;48.316;11.558;2024-02-26T08:30:07;8.27;;;5.22;;
30287;SDS011;17103;48.316;11.558;2024-02-26T08:32:32;8.68;;;5.78;;
30287;SDS011;17103;48.316;11.558;2024-02-26T08:34:58;8.55;;;5.53;;
30287;SDS011;17103;48.316;11.558;2024-02-26T08:37:24;9.77;;;5.45;;
30287;SDS011;17103;48.316;11.558;2024-02-26T08:39:49;6.25;;;5.05;;
30287;SDS011;17103;48.316;11.558;2024-02-26T08:42:15;9.50;;;6.10;;
30287;SDS011;17103;48.316;11.558;2024-02-26T08:44:40;8.48;;;4.82;;
30287;SDS011;17103;48.316;11.558;2024-02-26T08:47:06;11.05;;;5.72;;
30287;SDS011;17103;48.316;11.558;2024-02-26T08:49:32;7.90;;;5.82;;
30287;SDS011;17103;48.316;11.558;2024-02-26T08:51:58;7.63;;;5.65;;
30287;SDS011;17103;48.316;11.558;2024-02-26T08:54:24;8.80;;;5.97;;
30287;SDS011;17103;48.316;11.558;2024-02-26T08:56:49;9.80;;;6.75;;
30287;SDS011;17103;48.316;11.558;2024-02-26T08:59:15;14.75;;;10.35;;
30287;SDS011;17103;48.316;11.558;2024-02-26T09:01:41;14.13;;;9.85;;
30287;SDS011;17103;48.316;11.558;2024-02-26T09:04:07;11.10;;;8.18;;
30287;SDS011;17103;48.316;11.558;2024-02-26T09:06:32;10.02;;;6.85;;
30287;SDS011;17103;48.316;11.558;2024-02-26T09:08:59;8.57;;;6.03;;
30287;SDS011;17103;48.316;11.558;2024-02-26T09:11:25;11.63;;;6.10;;
30287;SDS011;17103;48.316;11.558;2024-02-26T09:13:51;11.50;;;6.50;;
30287;SDS011;17103;48.316;11.558;2024-02-26T09:16:17;10.82;;;6.82;;
30287;SDS011;17103;48.316;11.558;2024-02-26T09:18:42;8.27;;;5.72;;
30287;SDS011;17103;48.316;11.558;2024-02-26T09:21:08;9.63;;;6.13;;
30287;SDS011;17103;48.316;11.558;2024-02-26T09:23:35;7.65;;;5.75;;
30287;SDS011;17103;48.316;11.558;2024-02-26T09:26:02;7.80;;;5.55;;
30287;SDS011;17103;48.316;11.558;2024-02-26T09:28:30;7.97;;;4.78;;
30287;SDS011;17103;48.316;11.558;2024-02-26T09:30:59;6.68;;;5.15;;
30287;SDS011;17103;48.316;11.558;2024-02-26T09:33:25;9.50;;;4.50;;
30287;SDS011;17103;48.316;11.558;2024-02-26T09:35:51;4.93;;;3.80;;
30287;SDS011;17103;48.316;11.558;2024-02-26T09:38:16;7.40;;;3.88;;
30287;SDS011;17103;48.316;11.558;2024-02-26T09:40:42;5.85;;;4.22;;
30287;SDS011;17103;48.316;11.558;2024-02-26T09:43:08;4.80;;;2.92;;
30287;SDS011;17103;48.316;11.558;2024-02-26T09:45:40;6.10;;;3.50;;
30287;SDS011;17103;48.316;11.558;2024-02-26T09:48:07;6.78;;;4.18;;
30287;SDS011;17103;48.316;11.558;2024-02-26T09:50:35;5.32;;;4.03;;
30287;SDS011;17103;48.316;11.558;2024-02-26T09:53:02;5.40;;;3.60;;
30287;SDS011;17103;48.316;11.558;2024-02-26T09:55:30;3.85;;;3.00;;
30287;SDS011;17103;48.316;11.558;2024-02-26T09:57:56;3.65;;;2.72;;
30287;SDS011;17103;48.316;11.558;2024-02-26T10:00:23;3.78;;;2.92;;
30287;SDS011;17103;48.316;11.558;2024-02-26T10:02:52;3.55;;;2.78;;
30287;SDS011;17103;48.316;11.558;2024-02-26T10:05:19;4.22;;;2.88;;
30287;SDS011;17103;48.316;11.558;2024-02-26T10:07:44;4.25;;;2.80;;
30287;SDS011;17103;48.316;11.558;2024-02-26T10:10:11;6.25;;;3.25;;
30287;SDS011;17103;48.316;11.558;2024-02-26T10:12:38;5.18;;;3.13;;
30287;SDS011;17103;48.316;11.558;2024-02-26T10:15:03;4.70;;;2.80;;
30287;SDS011;17103;48.316;11.558;2024-02-26T10:17:29;4.07;;;3.45;;
30287;SDS011;17103;48.316;11.558;2024-02-26T10:19:58;4.80;;;3.47;;
30287;SDS011;17103;48.316;11.558;2024-02-26T10:22:42;8.35;;;3.10;;
30287;SDS011;17103;48.316;11.558;2024-02-26T10:25:09;4.05;;;2.97;;
30287;SDS011;17103;48.316;11.558;2024-02-26T10:27:35;4.10;;;2.90;;
30287;SDS011;17103;48.316;11.558;2024-02-26T10:30:04;3.78;;;2.40;;
30287;SDS011;17103;48.316;11.558;2024-02-26T10:32:41;7.65;;;2.60;;
30287;SDS011;17103;48.316;11.558;2024-02-26T10:35:10;6.35;;;2.90;;
30287;SDS011;17103;48.316;11.558;2024-02-26T10:37:35;3.97;;;2.63;;
30287;SDS011;17103;48.316;11.558;2024-02-26T10:40:01;4.78;;;3.33;;
30287;SDS011;17103;48.316;11.558;2024-02-26T10:42:28;5.90;;;3.33;;
30287;SDS011;17103;48.316;11.558;2024-02-26T10:44:53;3.70;;;2.40;;
30287;SDS011;17103;48.316;11.558;2024-02-26T10:47:19;5.90;;;3.78;;
30287;SDS011;17103;48.316;11.558;2024-02-26T10:49:46;4.75;;;2.70;;
30287;SDS011;17103;48.316;11.558;2024-02-26T10:52:13;4.80;;;3.40;;
30287;SDS011;17103;48.316;11.558;2024-02-26T10:54:40;4.80;;;3.40;;
30287;SDS011;17103;48.316;11.558;2024-02-26T10:57:08;6.68;;;3.58;;
30287;SDS011;17103;48.316;11.558;2024-02-26T10:59:35;4.90;;;3.67;;
30287;SDS011;17103;48.316;11.558;2024-02-26T11:02:01;6.78;;;2.97;;
30287;SDS011;17103;48.316;11.558;2024-02-26T11:04:28;4.43;;;3.28;;
30287;SDS011;17103;48.316;11.558;2024-02-26T11:06:56;3.75;;;2.65;;
30287;SDS011;17103;48.316;11.558;2024-02-26T11:09:23;3.63;;;2.53;;
30287;SDS011;17103;48.316;11.558;2024-02-26T11:11:49;4.40;;;3.38;;
30287;SDS011;17103;48.316;11.558;2024-02-26T11:14:19;6.10;;;2.80;;
30287;SDS011;17103;48.316;11.558;2024-02-26T11:16:47;3.72;;;2.83;;
30287;SDS011;17103;48.316;11.558;2024-02-26T11:19:14;4.00;;;2.47;;
30287;SDS011;17103;48.316;11.558;2024-02-26T11:21:43;3.28;;;2.55;;
30287;SDS011;17103;48.316;11.558;2024-02-26T11:24:11;4.50;;;2.80;;
30287;SDS011;17103;48.316;11.558;2024-02-26T11:26:40;3.67;;;2.72;;
30287;SDS011;17103;48.316;11.558;2024-02-26T11:29:14;4.65;;;3.03;;
30287;SDS011;17103;48.316;11.558;2024-02-26T11:31:43;4.93;;;2.83;;
30287;SDS011;17103;48.316;11.558;2024-02-26T11:34:09;4.03;;;2.72;;
30287;SDS011;17103;48.316;11.558;2024-02-26T11:36:36;3.63;;;2.22;;
30287;SDS011;17103;48.316;11.558;2024-02-26T11:39:03;2.30;;;1.25;;
30287;SDS011;17103;48.316;11.558;2024-02-26T11:41:29;3.80;;;2.03;;
30287;SDS011;17103;48.316;11.558;2024-02-26T11:44:00;2.60;;;1.80;;
30287;SDS011;17103;48.316;11.558;2024-02-26T11:46:30;4.35;;;2.20;;
30287;SDS011;17103;48.316;11.558;2024-02-26T11:49:03;2.47;;;2.00;;
30287;SDS011;17103;48.316;11.558;2024-02-26T11:51:52;2.97;;;1.95;;
30287;SDS011;17103;48.316;11.558;2024-02-26T11:54:45;2.85;;;1.88;;
30287;SDS011;17103;48.316;11.558;2024-02-26T12:05:17;2.30;;;1.67;;
30287;SDS011;17103;48.316;11.558;2024-02-26T12:07:48;3.27;;;2.03;;
30287;SDS011;17103;48.316;11.558;2024-02-26T12:10:36;3.28;;;1.90;;
30287;SDS011;17103;48.316;11.558;2024-02-26T12:15:42;2.50;;;1.80;;
30287;SDS011;17103;48.316;11.558;2024-02-26T12:18:10;2.42;;;1.40;;
30287;SDS011;17103;48.316;11.558;2024-02-26T12:20:44;3.17;;;2.00;;
30287;SDS011;17103;48.316;11.558;2024-02-26T12:23:14;3.45;;;1.88;;
30287;SDS011;17103;48.316;11.558;2024-02-26T12:25:43;2.42;;;1.73;;
30287;SDS011;17103;48.316;11.558;2024-02-26T12:28:09;3.65;;;2.33;;
30287;SDS011;17103;48.316;11.558;2024-02-26T12:30:34;2.28;;;1.70;;
30287;SDS011;17103;48.316;11.558;2024-02-26T12:33:01;2.25;;;1.45;;
30287;SDS011;17103;48.316;11.558;2024-02-26T12:35:28;4.95;;;1.55;;
30287;SDS011;17103;48.316;11.558;2024-02-26T12:37:54;2.45;;;1.50;;
30287;SDS011;17103;48.316;11.558;2024-02-26T12:40:20;1.73;;;1.08;;
30287;SDS011;17103;48.316;11.558;2024-02-26T12:42:46;1.40;;;1.10;;
30287;SDS011;17103;48.316;11.558;2024-02-26T12:45:12;3.38;;;1.48;;
30287;SDS011;17103;48.316;11.558;2024-02-26T12:47:39;2.85;;;1.48;;
30287;SDS011;17103;48.316;11.558;2024-02-26T12:50:07;2.55;;;1.10;;
30287;SDS011;17103;48.316;11.558;2024-02-26T12:52:34;1.75;;;0.93;;
30287;SDS011;17103;48.316;11.558;2024-02-26T12:55:03;2.60;;;1.27;;
30287;SDS011;17103;48.316;11.558;2024-02-26T12:57:31;1.30;;;0.90;;
30287;SDS011;17103;48.316;11.558;2024-02-26T12:59:58;1.92;;;1.13;;
30287;SDS011;17103;48.316;11.558;2024-02-26T13:02:25;2.90;;;1.00;;
30287;SDS011;17103;48.316;11.558;2024-02-26T13:04:51;1.23;;;0.80;;
30287;SDS011;17103;48.316;11.558;2024-02-26T13:07:18;5.43;;;1.05;;
30287;SDS011;17103;48.316;11.558;2024-02-26T13:09:45;1.30;;;0.93;;
30287;SDS011;17103;48.316;11.558;2024-02-26T13:12:11;1.30;;;0.80;;
30287;SDS011;17103;48.316;11.558;2024-02-26T13:14:38;1.92;;;1.20;;
30287;SDS011;17103;48.316;11.558;2024-02-26T13:17:03;2.33;;;0.70;;
30287;SDS011;17103;48.316;11.558;2024-02-26T13:19:30;1.40;;;0.70;;
30287;SDS011;17103;48.316;11.558;2024-02-26T13:21:55;1.85;;;0.93;;
30287;SDS011;17103;48.316;11.558;2024-02-26T13:24:21;1.15;;;0.88;;
30287;SDS011;17103;48.316;11.558;2024-02-26T13:26:54;1.85;;;0.60;;
30287;SDS011;17103;48.316;11.558;2024-02-26T13:29:20;3.33;;;0.80;;
30287;SDS011;17103;48.316;11.558;2024-02-26T13:31:46;1.38;;;0.70;;
30287;SDS011;17103;48.316;11.558;2024-02-26T13:34:22;0.98;;;0.50;;
30287;SDS011;17103;48.316;11.558;2024-02-26T13:36:50;1.75;;;0.70;;
30287;SDS011;17103;48.316;11.558;2024-02-26T13:39:21;1.15;;;0.70;;
30287;SDS011;17103;48.316;11.558;2024-02-26T13:41:48;0.88;;;0.68;;
30287;SDS011;17103;48.316;11.558;2024-02-26T13:44:16;1.55;;;0.52;;
30287;SDS011;17103;48.316;11.558;2024-02-26T13:47:14;0.50;;;0.35;;
30287;SDS011;17103;48.316;11.558;2024-02-26T13:49:41;1.10;;;0.65;;
30287;SDS011;17103;48.316;11.558;2024-02-26T13:52:07;0.80;;;0.52;;
30287;SDS011;17103;48.316;11.558;2024-02-26T13:54:33;0.70;;;0.65;;
30287;SDS011;17103;48.316;11.558;2024-02-26T13:56:59;0.60;;;0.40;;
30287;SDS011;17103;48.316;11.558;2024-02-26T13:59:24;1.20;;;0.55;;
30287;SDS011;17103;48.316;11.558;2024-02-26T14:01:50;2.13;;;0.55;;
30287;SDS011;17103;48.316;11.558;2024-02-26T14:04:18;2.47;;;0.40;;
30287;SDS011;17103;48.316;11.558;2024-02-26T14:06:43;4.03;;;0.57;;
30287;SDS011;17103;48.316;11.558;2024-02-26T14:09:09;2.08;;;0.90;;
30287;SDS011;17103;48.316;11.558;2024-02-26T14:11:34;0.73;;;0.50;;
30287;SDS011;17103;48.316;11.558;2024-02-26T14:14:01;2.42;;;0.95;;
30287;SDS011;17103;48.316;11.558;2024-02-26T14:16:27;2.20;;;0.68;;
30287;SDS011;17103;48.316;11.558;2024-02-26T14:18:52;0.82;;;0.50;;
30287;SDS011;17103;48.316;11.558;2024-02-26T14:21:18;1.20;;;0.50;;
30287;SDS011;17103;48.316;11.558;2024-02-26T14:23:44;2.40;;;0.63;;
30287;SDS011;17103;48.316;11.558;2024-02-26T14:26:10;0.70;;;0.60;;
30287;SDS011;17103;48.316;11.558;2024-02-26T14:28:36;1.67;;;0.50;;
30287;SDS011;17103;48.316;11.558;2024-02-26T14:31:01;1.13;;;0.45;;
30287;SDS011;17103;48.316;11.558;2024-02-26T14:33:29;0.90;;;0.40;;
30287;SDS011;17103;48.316;11.558;2024-02-26T14:35:55;1.00;;;0.68;;
30287;SDS011;17103;48.316;11.558;2024-02-26T14:38:21;0.77;;;0.40;;
30287;SDS011;17103;48.316;11.558;2024-02-26T14:40:48;0.65;;;0.40;;
30287;SDS011;17103;48.316;11.558;2024-02-26T14:43:14;0.93;;;0.52;;
30287;SDS011;17103;48.316;11.558;2024-02-26T14:45:40;1.33;;;0.70;;